ADDS METAR Data INFO
IDs: Format: Raw Decoded Include TAF

Data at: 1011 UTC 12 Dec 2017

KMSS 120953Z AUTO 07012G21KT 1SM -SN BR VV011 M08/M10 A2971 RMK AO2 SLP069 P0001 T10831100
KMSS 120916Z AUTO 07015KT 1SM -SN BR VV013 M09/M10 A2973 RMK AO2 P0001 T10891100
KMSS 120858Z AUTO 07017KT 1 1/4SM -SN BR OVC015 M09/M11 A2975 RMK AO2 P0000 T10891106
KMSS 120853Z AUTO 08013KT 1 1/2SM -SN BR OVC014 M09/M10 A2976 RMK AO2 SLP086 P0000 60000 T10891100 56029
KMSS 120843Z AUTO 07013KT 1 1/4SM -SN BR OVC014 M09/M11 A2976 RMK AO2 P0000 T10891106
KMSS 120832Z AUTO 06017KT 1 1/4SM -SN BR OVC016 M09/M11 A2977 RMK AO2 PRESFR P0000 T10891106
KMSS 120824Z AUTO 07016KT 1 1/2SM -SN BR OVC020 M09/M10 A2979 RMK AO2 P0000 T10891100
KMSS 120808Z AUTO 07015KT 2SM -SN BR BKN026 OVC032 M08/M10 A2980 RMK AO2 P0000 T10831100
KMSS 120753Z AUTO 07012KT 2 1/2SM -SN BR OVC030 M08/M10 A2981 RMK AO2 SLP103 P0000 T10831100
KMSS 120737Z AUTO 07011KT 2 1/2SM -SN BR SCT015 OVC032 M08/M09 A2982 RMK AO2 P0000 T10831094
KMSS 120730Z AUTO 07012KT 1 3/4SM -SN BR SCT013 OVC032 M08/M09 A2983 RMK AO2 P0000 T10831094
KMSS 120653Z AUTO 06010KT 1 1/4SM -SN BR OVC014 M08/M10 A2985 RMK AO2 SLP115 P0000 T10831100
KMSS 120644Z AUTO 07009KT 1 1/4SM -SN BR OVC014 M08/M10 A2985 RMK AO2 P0000 T10831100
KMSS 120631Z AUTO 07011KT 1 1/4SM -SN BR OVC016 M09/M10 A2986 RMK AO2 P0000 T10891100
KMSS 120619Z AUTO 06009KT 1 1/2SM -SN BR OVC020 M09/M11 A2987 RMK AO2 P0000 T10891106
KMSS 120608Z AUTO 07009KT 2 1/2SM -SN BR OVC028 M09/M11 A2987 RMK AO2 P0000 T10891106
KMSS 120553Z AUTO 06009KT 4SM -SN BR OVC036 M09/M11 A2988 RMK AO2 SLP128 P0000 60000 T10891106 11078 21094 58026
KMSS 120535Z AUTO 06008KT 3SM -SN BR BKN030 OVC055 M09/M11 A2990 RMK AO2 P0000 T10891111
KMSS 120530Z AUTO 06009KT 2 1/2SM -SN BR BKN021 OVC055 M09/M11 A2990 RMK AO2 P0000 T10891111
KMSS 120522Z AUTO 06009KT 1 3/4SM -SN BR OVC021 M09/M11 A2991 RMK AO2 P0000 T10891111
KMSS 120514Z AUTO 07008KT 2SM -SN BR OVC023 M09/M11 A2992 RMK AO2 P0000 T10891111
KMSS 120507Z AUTO 07009KT 3SM -SN OVC027 M09/M12 A2992 RMK AO2 P0000 T10891117
KMSS 120453Z AUTO 08008KT 4SM -SN OVC033 M09/M12 A2993 RMK AO2 SNB0357 SLP143 P0000 T10891122 410221117
KMSS 120353Z AUTO 07007KT 10SM OVC042 M08/M13 A2995 RMK AO2 SLP149 T10781133
KMSS 120253Z AUTO 06009KT 10SM BKN070 OVC095 M08/M14 A2996 RMK AO2 SLP155 T10831144 56022
KMSS 120153Z AUTO 07007KT 10SM OVC100 M09/M14 A2998 RMK AO2 SLP162 T10891139
KMSS 120053Z AUTO 07004KT 10SM FEW075 OVC100 M09/M14 A3000 RMK AO2 SLP170 T10891139
KMSS 112353Z AUTO 04006KT 10SM FEW120 M09/M14 A3003 RMK AO2 SLP178 T10941139 11072 21094 58005
KMSS 112253Z AUTO 05006KT 10SM CLR M09/M14 A3004 RMK AO2 SLP182 T10891139
KMSS 112153Z AUTO 03003KT 10SM CLR M09/M14 A3006 RMK AO2 SLP188 T10891144
KMSS 112053Z AUTO 01004KT 10SM CLR M09/M15 A3004 RMK AO2 SLP182 T10891150 58004
KMSS 111953Z AUTO 35004KT 10SM CLR M07/M16 A3005 RMK AO2 SLP183 T10721156
KMSS 111853Z AUTO VRB03KT 10SM CLR M08/M16 A3006 RMK AO2 SLP186 T10781156
KMSS 111753Z AUTO 00000KT 10SM CLR M08/M16 A3006 RMK AO2 SLP185 T10781156 11072 21117 58009
KMSS 111653Z AUTO 29008KT 10SM CLR M08/M16 A3007 RMK AO2 SLP189 T10781161
KMSS 111553Z AUTO 32009KT 10SM CLR M08/M16 A3009 RMK AO2 SLP195 T10831161
KMSS 111453Z AUTO 30008KT 10SM CLR M09/M14 A3008 RMK AO2 SLP194 T10891144 53022
KMSS 111353Z AUTO 32006KT 10SM CLR M10/M13 A3005 RMK AO2 SLP183 T11001133
KMSS 111253Z AUTO 31006KT 10SM SCT040 M11/M13 A3003 RMK AO2 SLP178 T11111133
KMSS 111153Z AUTO 30006KT 10SM CLR M11/M13 A3002 RMK AO2 SLP173 60000 T11061133 11039 21106 53024
KMSS 111053Z AUTO 31006KT 10SM OVC075 M09/M13 A2999 RMK AO2 SLP161 T10891128
KMSS 110953Z AUTO 34006KT 10SM SCT060 OVC080 M08/M14 A2997 RMK AO2 SLP155 T10831144
KMSS 110917Z AUTO 34006KT 10SM BKN031 BKN038 OVC075 M08/M13 A2996 RMK AO2 T10781128
KMSS 110853Z AUTO 33006KT 10SM OVC028 M08/M13 A2995 RMK AO2 SLP148 60000 T10781133 51030
KMSS 110753Z AUTO 36008KT 10SM OVC025 M07/M12 A2993 RMK AO2 SLP141 T10721117
KMSS 110653Z AUTO 32007KT 10SM OVC018 M07/M10 A2990 RMK AO2 SNE27 SLP131 P0000 T10671100
KMSS 110635Z AUTO 34006KT 10SM OVC016 M06/M09 A2989 RMK AO2 SNE27 P0000 T10611094
KMSS 110617Z AUTO 34008KT 9SM -SN OVC014 M06/M08 A2987 RMK AO2 P0000 T10561078
KMSS 110553Z AUTO 33010KT 10SM -SN BKN016 BKN024 OVC037 M04/M06 A2986 RMK AO2 SNB50 SLP117 P0000 60000 T10391061 11011 21039 53019
KMSS 110453Z AUTO 30008KT 10SM FEW022 OVC027 M02/M06 A2984 RMK AO2 SLP110 T10171056 410111039
KMSS 110432Z AUTO 28011KT 10SM OVC029 M01/M06 A2983 RMK AO2 T10111061
KMSS 110353Z AUTO 26011KT 10SM OVC034 M01/M06 A2982 RMK AO2 SLP104 T10111061
KMSS 110253Z AUTO 22008KT 10SM OVC035 M02/M05 A2980 RMK AO2 SLP098 T10171050 53005
KMSS 110153Z AUTO 22011KT 10SM SCT055 BKN070 OVC090 M02/M05 A2980 RMK AO2 SLP096 T10171050
KMSS 110053Z AUTO 20010KT 10SM OVC095 M02/M06 A2979 RMK AO2 SLP093 T10171056
KMSS 102353Z AUTO 21010KT 10SM OVC100 M02/M06 A2979 RMK AO2 SLP092 T10221061 11017 21022 52000
KMSS 102253Z AUTO 20007KT 10SM FEW090 OVC110 M02/M07 A2979 RMK AO2 SLP094 T10221067